sensor_id;sensor_type;location;lat;lon;timestamp;temperature;humidity
17415;DHT22;8825;48.086;16.426;2023-03-18T00:01:09;7.70;42.30
17415;DHT22;8825;48.086;16.426;2023-03-18T00:03:37;7.70;42.40
17415;DHT22;8825;48.086;16.426;2023-03-18T00:06:10;7.60;42.40
17415;DHT22;8825;48.086;16.426;2023-03-18T00:08:39;7.60;42.50
17415;DHT22;8825;48.086;16.426;2023-03-18T00:11:08;7.60;42.60
17415;DHT22;8825;48.086;16.426;2023-03-18T00:13:37;7.60;42.60
17415;DHT22;8825;48.086;16.426;2023-03-18T00:16:06;7.60;42.70
17415;DHT22;8825;48.086;16.426;2023-03-18T00:18:34;7.60;43.30
17415;DHT22;8825;48.086;16.426;2023-03-18T00:21:02;7.50;42.70
17415;DHT22;8825;48.086;16.426;2023-03-18T00:23:31;7.50;42.80
17415;DHT22;8825;48.086;16.426;2023-03-18T00:26:00;7.50;42.80
17415;DHT22;8825;48.086;16.426;2023-03-18T00:28:29;7.50;42.80
17415;DHT22;8825;48.086;16.426;2023-03-18T00:31:03;7.50;42.90
17415;DHT22;8825;48.086;16.426;2023-03-18T00:33:34;7.50;42.80
17415;DHT22;8825;48.086;16.426;2023-03-18T00:36:02;7.50;42.90
17415;DHT22;8825;48.086;16.426;2023-03-18T00:38:29;7.40;43.00
17415;DHT22;8825;48.086;16.426;2023-03-18T00:40:57;7.40;43.10
17415;DHT22;8825;48.086;16.426;2023-03-18T00:43:30;7.40;43.20
17415;DHT22;8825;48.086;16.426;2023-03-18T00:45:59;7.30;43.20
17415;DHT22;8825;48.086;16.426;2023-03-18T00:48:27;7.30;43.40
17415;DHT22;8825;48.086;16.426;2023-03-18T00:50:55;7.30;43.50
17415;DHT22;8825;48.086;16.426;2023-03-18T00:53:23;7.30;43.50
17415;DHT22;8825;48.086;16.426;2023-03-18T00:55:51;7.20;43.60
17415;DHT22;8825;48.086;16.426;2023-03-18T00:58:19;7.20;43.60
17415;DHT22;8825;48.086;16.426;2023-03-18T01:00:47;7.20;43.70
17415;DHT22;8825;48.086;16.426;2023-03-18T01:03:14;7.20;43.70
17415;DHT22;8825;48.086;16.426;2023-03-18T01:05:42;7.20;43.70
17415;DHT22;8825;48.086;16.426;2023-03-18T01:08:10;7.20;43.80
17415;DHT22;8825;48.086;16.426;2023-03-18T01:10:38;7.20;44.00
17415;DHT22;8825;48.086;16.426;2023-03-18T01:13:05;7.20;44.00
17415;DHT22;8825;48.086;16.426;2023-03-18T01:15:33;7.20;44.50
17415;DHT22;8825;48.086;16.426;2023-03-18T01:18:01;7.20;43.90
17415;DHT22;8825;48.086;16.426;2023-03-18T01:20:29;7.20;44.00
17415;DHT22;8825;48.086;16.426;2023-03-18T01:22:57;7.10;44.00
17415;DHT22;8825;48.086;16.426;2023-03-18T01:25:24;7.10;44.10
17415;DHT22;8825;48.086;16.426;2023-03-18T01:27:52;7.10;44.10
17415;DHT22;8825;48.086;16.426;2023-03-18T01:30:20;7.10;44.10
17415;DHT22;8825;48.086;16.426;2023-03-18T01:32:49;7.10;44.10
17415;DHT22;8825;48.086;16.426;2023-03-18T01:35:17;7.10;44.10
17415;DHT22;8825;48.086;16.426;2023-03-18T01:37:45;7.10;44.10
17415;DHT22;8825;48.086;16.426;2023-03-18T01:40:14;7.10;44.20
17415;DHT22;8825;48.086;16.426;2023-03-18T01:42:45;7.00;44.20
17415;DHT22;8825;48.086;16.426;2023-03-18T01:45:19;7.00;44.30
17415;DHT22;8825;48.086;16.426;2023-03-18T01:47:46;7.00;44.20
17415;DHT22;8825;48.086;16.426;2023-03-18T01:50:16;7.00;44.20
17415;DHT22;8825;48.086;16.426;2023-03-18T01:52:45;7.00;44.20
17415;DHT22;8825;48.086;16.426;2023-03-18T01:55:17;7.00;44.40
17415;DHT22;8825;48.086;16.426;2023-03-18T01:57:47;7.00;44.40
17415;DHT22;8825;48.086;16.426;2023-03-18T02:00:16;7.00;44.40
17415;DHT22;8825;48.086;16.426;2023-03-18T02:02:47;6.90;44.50
17415;DHT22;8825;48.086;16.426;2023-03-18T02:05:18;6.90;44.50
17415;DHT22;8825;48.086;16.426;2023-03-18T02:07:46;6.90;44.60
17415;DHT22;8825;48.086;16.426;2023-03-18T02:10:17;6.80;44.80
17415;DHT22;8825;48.086;16.426;2023-03-18T02:12:48;6.80;44.90
17415;DHT22;8825;48.086;16.426;2023-03-18T02:15:18;6.90;44.90
17415;DHT22;8825;48.086;16.426;2023-03-18T02:18:09;6.80;44.90
17415;DHT22;8825;48.086;16.426;2023-03-18T02:20:29;6.80;45.20
17415;DHT22;8825;48.086;16.426;2023-03-18T02:23:02;6.80;45.20
17415;DHT22;8825;48.086;16.426;2023-03-18T02:25:46;6.70;45.30
17415;DHT22;8825;48.086;16.426;2023-03-18T02:28:15;6.70;45.30
17415;DHT22;8825;48.086;16.426;2023-03-18T02:30:47;6.70;45.30
17415;DHT22;8825;48.086;16.426;2023-03-18T02:33:17;6.80;45.40
17415;DHT22;8825;48.086;16.426;2023-03-18T02:35:54;6.80;45.40
17415;DHT22;8825;48.086;16.426;2023-03-18T02:38:15;6.70;45.20
17415;DHT22;8825;48.086;16.426;2023-03-18T02:40:43;6.80;45.50
17415;DHT22;8825;48.086;16.426;2023-03-18T02:43:22;6.80;45.60
17415;DHT22;8825;48.086;16.426;2023-03-18T02:46:14;6.80;45.60
17415;DHT22;8825;48.086;16.426;2023-03-18T02:48:43;6.80;45.60
17415;DHT22;8825;48.086;16.426;2023-03-18T02:51:13;6.70;45.60
17415;DHT22;8825;48.086;16.426;2023-03-18T02:53:42;6.70;45.70
17415;DHT22;8825;48.086;16.426;2023-03-18T02:56:10;6.70;45.80
17415;DHT22;8825;48.086;16.426;2023-03-18T02:58:38;6.70;45.80
17415;DHT22;8825;48.086;16.426;2023-03-18T03:01:06;6.70;45.90
17415;DHT22;8825;48.086;16.426;2023-03-18T03:03:35;6.70;46.00
17415;DHT22;8825;48.086;16.426;2023-03-18T03:06:03;6.70;46.00
17415;DHT22;8825;48.086;16.426;2023-03-18T03:08:31;6.80;46.00
17415;DHT22;8825;48.086;16.426;2023-03-18T03:10:58;6.70;46.00
17415;DHT22;8825;48.086;16.426;2023-03-18T03:13:26;6.70;46.60
17415;DHT22;8825;48.086;16.426;2023-03-18T03:15:54;6.70;46.00
17415;DHT22;8825;48.086;16.426;2023-03-18T03:18:22;6.70;46.10
17415;DHT22;8825;48.086;16.426;2023-03-18T03:20:51;6.70;46.10
17415;DHT22;8825;48.086;16.426;2023-03-18T03:23:19;6.70;46.20
17415;DHT22;8825;48.086;16.426;2023-03-18T03:25:46;6.70;46.30
17415;DHT22;8825;48.086;16.426;2023-03-18T03:28:16;6.60;46.20
17415;DHT22;8825;48.086;16.426;2023-03-18T03:30:43;6.60;46.30
17415;DHT22;8825;48.086;16.426;2023-03-18T03:33:11;6.60;46.40
17415;DHT22;8825;48.086;16.426;2023-03-18T03:35:40;6.60;46.50
17415;DHT22;8825;48.086;16.426;2023-03-18T03:38:08;6.60;46.60
17415;DHT22;8825;48.086;16.426;2023-03-18T03:40:36;6.60;46.70
17415;DHT22;8825;48.086;16.426;2023-03-18T03:43:05;6.50;46.70
17415;DHT22;8825;48.086;16.426;2023-03-18T03:45:32;6.50;46.70
17415;DHT22;8825;48.086;16.426;2023-03-18T03:48:00;6.50;46.70
17415;DHT22;8825;48.086;16.426;2023-03-18T03:50:28;6.50;46.80
17415;DHT22;8825;48.086;16.426;2023-03-18T03:52:56;6.50;46.90
17415;DHT22;8825;48.086;16.426;2023-03-18T03:55:24;6.50;47.40
17415;DHT22;8825;48.086;16.426;2023-03-18T03:57:52;6.50;46.90
17415;DHT22;8825;48.086;16.426;2023-03-18T04:00:21;6.50;47.00
17415;DHT22;8825;48.086;16.426;2023-03-18T04:02:51;6.40;47.00
17415;DHT22;8825;48.086;16.426;2023-03-18T04:05:21;6.50;47.10
17415;DHT22;8825;48.086;16.426;2023-03-18T04:07:49;6.40;47.20
17415;DHT22;8825;48.086;16.426;2023-03-18T04:10:19;6.40;47.30
17415;DHT22;8825;48.086;16.426;2023-03-18T04:12:48;6.40;47.30
17415;DHT22;8825;48.086;16.426;2023-03-18T04:15:18;6.40;47.40
17415;DHT22;8825;48.086;16.426;2023-03-18T04:17:49;6.40;47.40
17415;DHT22;8825;48.086;16.426;2023-03-18T04:20:17;6.30;47.50
17415;DHT22;8825;48.086;16.426;2023-03-18T04:22:45;6.30;47.60
17415;DHT22;8825;48.086;16.426;2023-03-18T04:25:13;6.30;47.60
17415;DHT22;8825;48.086;16.426;2023-03-18T04:27:41;6.20;47.70
17415;DHT22;8825;48.086;16.426;2023-03-18T04:30:10;6.20;47.80
17415;DHT22;8825;48.086;16.426;2023-03-18T04:32:39;6.30;47.90
17415;DHT22;8825;48.086;16.426;2023-03-18T04:35:06;6.30;47.90
17415;DHT22;8825;48.086;16.426;2023-03-18T04:37:35;6.20;47.80
17415;DHT22;8825;48.086;16.426;2023-03-18T04:40:03;6.20;48.00
17415;DHT22;8825;48.086;16.426;2023-03-18T04:42:31;6.20;48.00
17415;DHT22;8825;48.086;16.426;2023-03-18T04:44:59;6.20;48.00
17415;DHT22;8825;48.086;16.426;2023-03-18T04:47:27;6.20;48.20
17415;DHT22;8825;48.086;16.426;2023-03-18T04:49:55;6.10;48.20
17415;DHT22;8825;48.086;16.426;2023-03-18T04:52:22;6.10;48.30
17415;DHT22;8825;48.086;16.426;2023-03-18T04:54:50;6.10;48.40
17415;DHT22;8825;48.086;16.426;2023-03-18T04:57:18;6.10;48.40
17415;DHT22;8825;48.086;16.426;2023-03-18T04:59:45;6.10;48.40
17415;DHT22;8825;48.086;16.426;2023-03-18T05:02:13;6.10;48.30
17415;DHT22;8825;48.086;16.426;2023-03-18T05:04:41;6.10;48.30
17415;DHT22;8825;48.086;16.426;2023-03-18T05:07:14;6.10;48.30
17415;DHT22;8825;48.086;16.426;2023-03-18T05:09:40;6.10;48.40
17415;DHT22;8825;48.086;16.426;2023-03-18T05:12:14;6.10;48.30
17415;DHT22;8825;48.086;16.426;2023-03-18T05:14:42;6.10;48.30
17415;DHT22;8825;48.086;16.426;2023-03-18T05:17:11;6.10;48.50
17415;DHT22;8825;48.086;16.426;2023-03-18T05:19:46;6.00;48.40
17415;DHT22;8825;48.086;16.426;2023-03-18T05:22:15;6.00;48.40
17415;DHT22;8825;48.086;16.426;2023-03-18T05:24:43;6.10;48.40
17415;DHT22;8825;48.086;16.426;2023-03-18T05:27:13;6.00;49.00
17415;DHT22;8825;48.086;16.426;2023-03-18T05:29:41;6.00;48.50
17415;DHT22;8825;48.086;16.426;2023-03-18T05:32:09;6.00;48.50
17415;DHT22;8825;48.086;16.426;2023-03-18T05:34:39;6.00;48.60
17415;DHT22;8825;48.086;16.426;2023-03-18T05:37:08;6.00;48.60
17415;DHT22;8825;48.086;16.426;2023-03-18T05:39:36;6.10;48.60
17415;DHT22;8825;48.086;16.426;2023-03-18T05:42:04;6.10;48.50
17415;DHT22;8825;48.086;16.426;2023-03-18T05:44:33;6.10;48.50
17415;DHT22;8825;48.086;16.426;2023-03-18T05:47:00;6.10;48.50
17415;DHT22;8825;48.086;16.426;2023-03-18T05:49:28;6.10;48.50
17415;DHT22;8825;48.086;16.426;2023-03-18T05:51:56;6.20;48.50
17415;DHT22;8825;48.086;16.426;2023-03-18T05:54:24;6.10;48.40
17415;DHT22;8825;48.086;16.426;2023-03-18T05:56:52;6.20;48.50
17415;DHT22;8825;48.086;16.426;2023-03-18T05:59:20;6.20;48.50
17415;DHT22;8825;48.086;16.426;2023-03-18T06:01:49;6.30;48.40
17415;DHT22;8825;48.086;16.426;2023-03-18T06:04:19;6.30;48.20
17415;DHT22;8825;48.086;16.426;2023-03-18T06:06:47;6.30;48.20
17415;DHT22;8825;48.086;16.426;2023-03-18T06:09:15;6.40;48.00
17415;DHT22;8825;48.086;16.426;2023-03-18T06:11:42;6.50;47.90
17415;DHT22;8825;48.086;16.426;2023-03-18T06:14:11;6.40;47.70
17415;DHT22;8825;48.086;16.426;2023-03-18T06:16:39;6.50;47.80
17415;DHT22;8825;48.086;16.426;2023-03-18T06:19:07;6.50;47.60
17415;DHT22;8825;48.086;16.426;2023-03-18T06:21:36;6.60;47.50
17415;DHT22;8825;48.086;16.426;2023-03-18T06:24:04;6.70;47.50
17415;DHT22;8825;48.086;16.426;2023-03-18T06:26:32;6.80;47.40
17415;DHT22;8825;48.086;16.426;2023-03-18T06:29:00;6.90;47.20
17415;DHT22;8825;48.086;16.426;2023-03-18T06:31:29;7.10;47.10
17415;DHT22;8825;48.086;16.426;2023-03-18T06:33:57;7.20;47.50
17415;DHT22;8825;48.086;16.426;2023-03-18T06:36:25;7.20;46.80
17415;DHT22;8825;48.086;16.426;2023-03-18T06:38:52;7.40;46.60
17415;DHT22;8825;48.086;16.426;2023-03-18T06:41:21;7.40;46.40
17415;DHT22;8825;48.086;16.426;2023-03-18T06:43:49;7.50;46.20
17415;DHT22;8825;48.086;16.426;2023-03-18T06:46:18;7.50;45.80
17415;DHT22;8825;48.086;16.426;2023-03-18T06:48:45;7.60;45.70
17415;DHT22;8825;48.086;16.426;2023-03-18T06:51:14;7.60;45.70
17415;DHT22;8825;48.086;16.426;2023-03-18T06:53:42;7.60;45.70
17415;DHT22;8825;48.086;16.426;2023-03-18T06:56:09;7.60;45.10
17415;DHT22;8825;48.086;16.426;2023-03-18T06:58:38;7.80;45.30
17415;DHT22;8825;48.086;16.426;2023-03-18T07:01:06;7.80;45.10
17415;DHT22;8825;48.086;16.426;2023-03-18T07:03:34;7.90;45.20
17415;DHT22;8825;48.086;16.426;2023-03-18T07:06:01;8.00;45.00
17415;DHT22;8825;48.086;16.426;2023-03-18T07:08:29;8.00;44.60
17415;DHT22;8825;48.086;16.426;2023-03-18T07:10:57;8.10;44.70
17415;DHT22;8825;48.086;16.426;2023-03-18T07:13:26;8.00;44.40
17415;DHT22;8825;48.086;16.426;2023-03-18T07:15:54;8.10;44.80
17415;DHT22;8825;48.086;16.426;2023-03-18T07:18:26;8.20;44.60
17415;DHT22;8825;48.086;16.426;2023-03-18T07:20:54;8.30;44.70
17415;DHT22;8825;48.086;16.426;2023-03-18T07:23:21;8.40;44.30
17415;DHT22;8825;48.086;16.426;2023-03-18T07:25:49;8.40;44.30
17415;DHT22;8825;48.086;16.426;2023-03-18T07:28:16;8.40;43.50
17415;DHT22;8825;48.086;16.426;2023-03-18T07:30:44;8.30;44.00
17415;DHT22;8825;48.086;16.426;2023-03-18T07:33:12;8.30;43.90
17415;DHT22;8825;48.086;16.426;2023-03-18T07:35:41;8.40;44.00
17415;DHT22;8825;48.086;16.426;2023-03-18T07:38:09;8.40;43.80
17415;DHT22;8825;48.086;16.426;2023-03-18T07:40:38;8.50;43.80
17415;DHT22;8825;48.086;16.426;2023-03-18T07:43:05;8.50;43.80
17415;DHT22;8825;48.086;16.426;2023-03-18T07:45:33;8.70;44.10
17415;DHT22;8825;48.086;16.426;2023-03-18T07:48:00;8.70;43.60
17415;DHT22;8825;48.086;16.426;2023-03-18T07:50:28;8.70;43.30
17415;DHT22;8825;48.086;16.426;2023-03-18T07:52:56;8.60;43.10
17415;DHT22;8825;48.086;16.426;2023-03-18T07:55:23;8.70;43.40
17415;DHT22;8825;48.086;16.426;2023-03-18T07:57:51;8.80;43.00
17415;DHT22;8825;48.086;16.426;2023-03-18T08:00:19;8.90;43.20
17415;DHT22;8825;48.086;16.426;2023-03-18T08:02:47;9.10;43.20
17415;DHT22;8825;48.086;16.426;2023-03-18T08:05:15;9.30;42.90
17415;DHT22;8825;48.086;16.426;2023-03-18T08:07:44;9.40;42.40
17415;DHT22;8825;48.086;16.426;2023-03-18T08:10:12;9.40;41.90
17415;DHT22;8825;48.086;16.426;2023-03-18T08:12:40;9.30;42.50
17415;DHT22;8825;48.086;16.426;2023-03-18T08:15:08;9.50;42.80
17415;DHT22;8825;48.086;16.426;2023-03-18T08:17:37;9.70;42.40
17415;DHT22;8825;48.086;16.426;2023-03-18T08:20:06;9.80;42.00
17415;DHT22;8825;48.086;16.426;2023-03-18T08:22:33;9.90;42.20
17415;DHT22;8825;48.086;16.426;2023-03-18T08:25:01;10.00;41.10
17415;DHT22;8825;48.086;16.426;2023-03-18T08:27:28;10.10;40.90
17415;DHT22;8825;48.086;16.426;2023-03-18T08:29:56;10.20;40.60
17415;DHT22;8825;48.086;16.426;2023-03-18T08:32:24;10.00;40.40
17415;DHT22;8825;48.086;16.426;2023-03-18T08:34:53;10.00;40.80
17415;DHT22;8825;48.086;16.426;2023-03-18T08:37:20;10.10;40.70
17415;DHT22;8825;48.086;16.426;2023-03-18T08:39:48;10.20;40.30
17415;DHT22;8825;48.086;16.426;2023-03-18T08:42:16;10.20;39.90
17415;DHT22;8825;48.086;16.426;2023-03-18T08:44:44;10.30;39.60
17415;DHT22;8825;48.086;16.426;2023-03-18T08:47:12;10.20;40.20
17415;DHT22;8825;48.086;16.426;2023-03-18T08:49:39;10.30;40.20
17415;DHT22;8825;48.086;16.426;2023-03-18T08:52:07;10.20;39.50
17415;DHT22;8825;48.086;16.426;2023-03-18T08:54:35;10.10;39.80
17415;DHT22;8825;48.086;16.426;2023-03-18T08:57:03;10.10;40.10
17415;DHT22;8825;48.086;16.426;2023-03-18T08:59:31;10.20;40.30
17415;DHT22;8825;48.086;16.426;2023-03-18T09:01:58;10.30;39.70
17415;DHT22;8825;48.086;16.426;2023-03-18T09:04:26;10.30;39.60
17415;DHT22;8825;48.086;16.426;2023-03-18T09:06:54;10.50;39.70
17415;DHT22;8825;48.086;16.426;2023-03-18T09:09:22;10.70;39.60
17415;DHT22;8825;48.086;16.426;2023-03-18T09:11:50;10.90;39.70
17415;DHT22;8825;48.086;16.426;2023-03-18T09:14:18;11.10;38.60
17415;DHT22;8825;48.086;16.426;2023-03-18T09:16:45;11.20;38.40
17415;DHT22;8825;48.086;16.426;2023-03-18T09:19:13;11.30;38.40
17415;DHT22;8825;48.086;16.426;2023-03-18T09:21:40;11.60;38.70
17415;DHT22;8825;48.086;16.426;2023-03-18T09:24:08;11.90;38.10
17415;DHT22;8825;48.086;16.426;2023-03-18T09:26:37;12.20;36.60
17415;DHT22;8825;48.086;16.426;2023-03-18T09:29:05;12.20;36.30
17415;DHT22;8825;48.086;16.426;2023-03-18T09:31:32;12.50;36.40
17415;DHT22;8825;48.086;16.426;2023-03-18T09:34:00;12.70;36.40
17415;DHT22;8825;48.086;16.426;2023-03-18T09:36:28;12.80;34.80
17415;DHT22;8825;48.086;16.426;2023-03-18T09:38:55;12.90;34.00
17415;DHT22;8825;48.086;16.426;2023-03-18T09:44:32;12.90;34.40
17415;DHT22;8825;48.086;16.426;2023-03-18T09:52:53;13.40;33.70
17415;DHT22;8825;48.086;16.426;2023-03-18T09:55:20;13.70;34.20
17415;DHT22;8825;48.086;16.426;2023-03-18T09:57:48;14.10;33.60
17415;DHT22;8825;48.086;16.426;2023-03-18T10:00:22;14.50;32.60
17415;DHT22;8825;48.086;16.426;2023-03-18T10:03:19;14.80;32.10
17415;DHT22;8825;48.086;16.426;2023-03-18T10:05:28;14.80;31.00
17415;DHT22;8825;48.086;16.426;2023-03-18T10:08:00;14.40;31.30
17415;DHT22;8825;48.086;16.426;2023-03-18T10:10:29;14.50;32.30
17415;DHT22;8825;48.086;16.426;2023-03-18T10:15:57;15.20;32.50
17415;DHT22;8825;48.086;16.426;2023-03-18T10:18:32;15.70;31.70
17415;DHT22;8825;48.086;16.426;2023-03-18T10:21:24;16.00;31.50
17415;DHT22;8825;48.086;16.426;2023-03-18T10:26:54;16.60;30.00
17415;DHT22;8825;48.086;16.426;2023-03-18T10:29:43;16.80;29.50
17415;DHT22;8825;48.086;16.426;2023-03-18T10:37:41;17.70;29.00
17415;DHT22;8825;48.086;16.426;2023-03-18T10:40:15;18.00;28.70
17415;DHT22;8825;48.086;16.426;2023-03-18T10:42:43;18.30;28.30
17415;DHT22;8825;48.086;16.426;2023-03-18T10:45:29;18.50;27.50
17415;DHT22;8825;48.086;16.426;2023-03-18T10:48:02;18.30;27.90
17415;DHT22;8825;48.086;16.426;2023-03-18T10:50:34;18.60;28.10
17415;DHT22;8825;48.086;16.426;2023-03-18T10:53:09;18.70;27.70
17415;DHT22;8825;48.086;16.426;2023-03-18T10:55:42;18.90;27.70
17415;DHT22;8825;48.086;16.426;2023-03-18T10:58:16;19.00;26.80
17415;DHT22;8825;48.086;16.426;2023-03-18T11:00:45;18.70;26.70
17415;DHT22;8825;48.086;16.426;2023-03-18T11:03:17;18.70;27.60
17415;DHT22;8825;48.086;16.426;2023-03-18T11:05:43;18.70;27.50
17415;DHT22;8825;48.086;16.426;2023-03-18T11:08:32;18.70;27.90
17415;DHT22;8825;48.086;16.426;2023-03-18T11:11:21;18.60;27.50
17415;DHT22;8825;48.086;16.426;2023-03-18T11:13:50;18.50;26.80
17415;DHT22;8825;48.086;16.426;2023-03-18T11:16:24;18.40;27.30
17415;DHT22;8825;48.086;16.426;2023-03-18T11:18:52;18.30;27.30
17415;DHT22;8825;48.086;16.426;2023-03-18T11:21:20;18.20;27.80
17415;DHT22;8825;48.086;16.426;2023-03-18T11:23:57;18.00;27.90
17415;DHT22;8825;48.086;16.426;2023-03-18T11:26:44;17.90;28.10
17415;DHT22;8825;48.086;16.426;2023-03-18T11:29:17;18.00;27.90
17415;DHT22;8825;48.086;16.426;2023-03-18T11:31:56;17.90;28.20
17415;DHT22;8825;48.086;16.426;2023-03-18T11:34:30;17.90;28.20
17415;DHT22;8825;48.086;16.426;2023-03-18T11:37:00;18.00;28.50
17415;DHT22;8825;48.086;16.426;2023-03-18T11:39:33;18.10;28.60
17415;DHT22;8825;48.086;16.426;2023-03-18T11:42:24;18.10;28.30
17415;DHT22;8825;48.086;16.426;2023-03-18T11:44:33;18.20;28.30
17415;DHT22;8825;48.086;16.426;2023-03-18T11:47:18;17.80;28.00
17415;DHT22;8825;48.086;16.426;2023-03-18T11:49:47;17.90;28.50
17415;DHT22;8825;48.086;16.426;2023-03-18T11:55:12;17.50;28.30
17415;DHT22;8825;48.086;16.426;2023-03-18T12:14:42;17.20;29.20
17415;DHT22;8825;48.086;16.426;2023-03-18T12:17:18;17.30;29.70
17415;DHT22;8825;48.086;16.426;2023-03-18T12:36:21;17.40;29.00
17415;DHT22;8825;48.086;16.426;2023-03-18T12:39:01;17.40;28.80
17415;DHT22;8825;48.086;16.426;2023-03-18T12:47:09;17.80;28.60
17415;DHT22;8825;48.086;16.426;2023-03-18T12:49:48;17.80;28.40
17415;DHT22;8825;48.086;16.426;2023-03-18T12:55:14;17.90;28.70
17415;DHT22;8825;48.086;16.426;2023-03-18T13:00:38;18.00;27.70
17415;DHT22;8825;48.086;16.426;2023-03-18T13:06:01;18.00;27.80
17415;DHT22;8825;48.086;16.426;2023-03-18T13:08:43;18.00;27.40
17415;DHT22;8825;48.086;16.426;2023-03-18T13:11:27;18.00;27.30
17415;DHT22;8825;48.086;16.426;2023-03-18T13:13:55;18.00;27.40
17415;DHT22;8825;48.086;16.426;2023-03-18T13:16:23;18.10;27.60
17415;DHT22;8825;48.086;16.426;2023-03-18T13:18:52;18.00;27.00
17415;DHT22;8825;48.086;16.426;2023-03-18T13:21:24;18.00;27.50
17415;DHT22;8825;48.086;16.426;2023-03-18T13:23:59;18.10;27.40
17415;DHT22;8825;48.086;16.426;2023-03-18T13:32:06;18.10;27.20
17415;DHT22;8825;48.086;16.426;2023-03-18T13:34:54;18.10;27.20
17415;DHT22;8825;48.086;16.426;2023-03-18T13:37:45;17.80;26.80
17415;DHT22;8825;48.086;16.426;2023-03-18T13:40:41;17.90;27.60
17415;DHT22;8825;48.086;16.426;2023-03-18T13:43:13;18.00;27.30
17415;DHT22;8825;48.086;16.426;2023-03-18T13:45:45;18.10;27.10
17415;DHT22;8825;48.086;16.426;2023-03-18T13:48:28;18.10;27.20
17415;DHT22;8825;48.086;16.426;2023-03-18T13:50:58;18.20;26.70
17415;DHT22;8825;48.086;16.426;2023-03-18T13:53:30;18.10;26.90
17415;DHT22;8825;48.086;16.426;2023-03-18T13:56:02;18.10;26.80
17415;DHT22;8825;48.086;16.426;2023-03-18T13:58:49;18.10;27.00
17415;DHT22;8825;48.086;16.426;2023-03-18T14:06:20;17.80;26.70
17415;DHT22;8825;48.086;16.426;2023-03-18T14:08:49;17.70;27.00
17415;DHT22;8825;48.086;16.426;2023-03-18T14:14:02;17.80;27.30
17415;DHT22;8825;48.086;16.426;2023-03-18T14:21:53;17.80;27.30
17415;DHT22;8825;48.086;16.426;2023-03-18T14:24:25;17.90;27.70
17415;DHT22;8825;48.086;16.426;2023-03-18T14:29:44;17.70;27.40
17415;DHT22;8825;48.086;16.426;2023-03-18T14:38:10;17.70;27.80
17415;DHT22;8825;48.086;16.426;2023-03-18T14:40:43;17.70;27.80
17415;DHT22;8825;48.086;16.426;2023-03-18T14:43:43;17.70;27.90
17415;DHT22;8825;48.086;16.426;2023-03-18T14:46:17;17.60;27.90
17415;DHT22;8825;48.086;16.426;2023-03-18T14:48:43;17.60;28.00
17415;DHT22;8825;48.086;16.426;2023-03-18T14:51:20;17.50;28.00
17415;DHT22;8825;48.086;16.426;2023-03-18T14:53:55;17.50;28.40
17415;DHT22;8825;48.086;16.426;2023-03-18T14:56:35;17.30;28.40
17415;DHT22;8825;48.086;16.426;2023-03-18T14:58:56;17.30;28.50
17415;DHT22;8825;48.086;16.426;2023-03-18T15:01:35;17.30;28.70
17415;DHT22;8825;48.086;16.426;2023-03-18T15:04:03;17.30;28.80
17415;DHT22;8825;48.086;16.426;2023-03-18T15:06:32;17.10;28.70
17415;DHT22;8825;48.086;16.426;2023-03-18T15:09:12;17.00;29.00
17415;DHT22;8825;48.086;16.426;2023-03-18T15:11:38;17.00;29.10
17415;DHT22;8825;48.086;16.426;2023-03-18T15:14:11;16.90;29.10
17415;DHT22;8825;48.086;16.426;2023-03-18T15:16:39;16.90;29.20
17415;DHT22;8825;48.086;16.426;2023-03-18T15:19:09;16.80;29.30
17415;DHT22;8825;48.086;16.426;2023-03-18T15:21:37;16.90;29.40
17415;DHT22;8825;48.086;16.426;2023-03-18T15:24:07;16.70;29.50
17415;DHT22;8825;48.086;16.426;2023-03-18T15:26:37;16.60;29.40
17415;DHT22;8825;48.086;16.426;2023-03-18T15:29:30;16.50;29.70
17415;DHT22;8825;48.086;16.426;2023-03-18T15:32:07;16.50;29.70
17415;DHT22;8825;48.086;16.426;2023-03-18T15:34:37;16.40;29.90
17415;DHT22;8825;48.086;16.426;2023-03-18T15:39:47;16.30;30.00
17415;DHT22;8825;48.086;16.426;2023-03-18T15:42:18;16.20;30.10
17415;DHT22;8825;48.086;16.426;2023-03-18T15:45:00;16.20;30.20
17415;DHT22;8825;48.086;16.426;2023-03-18T15:47:30;16.10;30.20
17415;DHT22;8825;48.086;16.426;2023-03-18T15:52:40;16.00;30.40
17415;DHT22;8825;48.086;16.426;2023-03-18T15:55:25;16.00;30.60
17415;DHT22;8825;48.086;16.426;2023-03-18T15:57:55;15.90;30.90
17415;DHT22;8825;48.086;16.426;2023-03-18T16:00:23;15.90;30.50
17415;DHT22;8825;48.086;16.426;2023-03-18T16:02:51;15.80;30.90
17415;DHT22;8825;48.086;16.426;2023-03-18T16:05:23;15.70;30.70
17415;DHT22;8825;48.086;16.426;2023-03-18T16:07:51;15.70;30.90
17415;DHT22;8825;48.086;16.426;2023-03-18T16:10:21;15.60;30.80
17415;DHT22;8825;48.086;16.426;2023-03-18T16:12:54;15.70;30.90
17415;DHT22;8825;48.086;16.426;2023-03-18T16:15:23;15.60;30.80
17415;DHT22;8825;48.086;16.426;2023-03-18T16:17:53;15.60;30.80
17415;DHT22;8825;48.086;16.426;2023-03-18T16:20:27;15.60;30.90
17415;DHT22;8825;48.086;16.426;2023-03-18T16:22:55;15.60;31.00
17415;DHT22;8825;48.086;16.426;2023-03-18T16:25:25;15.60;31.00
17415;DHT22;8825;48.086;16.426;2023-03-18T16:27:57;15.50;31.10
17415;DHT22;8825;48.086;16.426;2023-03-18T16:30:30;15.50;31.20
17415;DHT22;8825;48.086;16.426;2023-03-18T16:33:04;15.50;31.30
17415;DHT22;8825;48.086;16.426;2023-03-18T16:35:33;15.50;31.60
17415;DHT22;8825;48.086;16.426;2023-03-18T16:38:01;15.40;31.50
17415;DHT22;8825;48.086;16.426;2023-03-18T16:40:30;15.40;31.50
17415;DHT22;8825;48.086;16.426;2023-03-18T16:42:58;15.40;31.40
17415;DHT22;8825;48.086;16.426;2023-03-18T16:45:30;15.40;31.50
17415;DHT22;8825;48.086;16.426;2023-03-18T16:48:03;15.40;31.60
17415;DHT22;8825;48.086;16.426;2023-03-18T16:50:35;15.30;31.70
17415;DHT22;8825;48.086;16.426;2023-03-18T16:53:48;15.30;31.70
17415;DHT22;8825;48.086;16.426;2023-03-18T16:55:32;15.30;31.80
17415;DHT22;8825;48.086;16.426;2023-03-18T16:58:00;15.20;32.00
17415;DHT22;8825;48.086;16.426;2023-03-18T17:00:30;15.20;32.10
17415;DHT22;8825;48.086;16.426;2023-03-18T17:02:59;15.10;32.20
17415;DHT22;8825;48.086;16.426;2023-03-18T17:05:27;15.10;32.40
17415;DHT22;8825;48.086;16.426;2023-03-18T17:07:55;15.00;32.40
17415;DHT22;8825;48.086;16.426;2023-03-18T17:10:24;15.00;32.50
17415;DHT22;8825;48.086;16.426;2023-03-18T17:12:57;14.90;32.60
17415;DHT22;8825;48.086;16.426;2023-03-18T17:15:29;14.90;32.70
17415;DHT22;8825;48.086;16.426;2023-03-18T17:17:58;14.80;32.80
17415;DHT22;8825;48.086;16.426;2023-03-18T17:20:28;14.80;33.00
17415;DHT22;8825;48.086;16.426;2023-03-18T17:22:59;14.70;33.10
17415;DHT22;8825;48.086;16.426;2023-03-18T17:25:27;14.60;33.20
17415;DHT22;8825;48.086;16.426;2023-03-18T17:27:57;14.60;33.40
17415;DHT22;8825;48.086;16.426;2023-03-18T17:30:35;14.50;33.50
17415;DHT22;8825;48.086;16.426;2023-03-18T17:33:00;14.50;33.50
17415;DHT22;8825;48.086;16.426;2023-03-18T17:35:29;14.50;33.60
17415;DHT22;8825;48.086;16.426;2023-03-18T17:37:56;14.40;33.50
17415;DHT22;8825;48.086;16.426;2023-03-18T17:40:27;14.40;33.60
17415;DHT22;8825;48.086;16.426;2023-03-18T17:42:55;14.30;33.70